Pagina principală
METAR-TAF:

METAR-TAF

Aeroporturi :

Volos, Grecia

Latitudine: 39-13N, longitudine: 022-48E, elevație: 25 m

Observații meteo curente

Raportul a fost făcut în urmă cu 38 de minute, la 12:20 UTC
Vânt 10 kt de la Est
Temperatură 29°C
Umiditate 45%
Presiune 1010 hPa
Vizibilitate de 10 km sau mai mult
Nori puțini la o înălțime de 3000 picior

METAR: LGBL 161220Z 09010KT 9999 FEW030 29/16 Q1010

Ora: 15:58 (12:58 UTC)

Prognoză

Raportul a fost făcut în urmă cu 1 oră și 58 de minute, la 11:00 UTC
Prognoză valabilă de la 16 ora 12 UTC la 16 ora 21 UTC
Vânt 10 kt de la Est/Sud-est
Vizibilitate de 10 km sau mai mult
Nori puțini la o înălțime de 3000 picior
Devenind
de la 16 ora 19 UTC la 16 ora 21 UTC
Vânt 10 kt de la Vest

TAF: LGBL 161100Z 1612/1621 11010KT 9999 FEW030 BECMG 1619/1621 27010KT

Observații și prognoze meteo pentru peste 4.000 de aeroporturi (rapoarte METAR și TAF).

Stațiile disponibile sunt reprezentate pe hartă prin puncte galbene și roșii.

Țineți indicatorul mouse-ului pe punctul dorit pentru a vedea denumirea stației.

Apoi, faceți clic pentru a vedea observațiile și prognozele meteorologice.

Pentru a schimba harta: Pentru mărire, faceți clic pe butoanele verzi cu cruce neagră; pentru micșorare, pe butonul verde cu o liniuță; pentru hărți învecinate, pe săgețile verzi.


METAR-TAF: